createdAt,value
2023-04-20T00:01:28.836Z,5.54
2023-04-20T00:04:16.065Z,5.41
2023-04-20T00:07:00.972Z,5.48
2023-04-20T00:09:46.152Z,5.51
2023-04-20T00:12:30.982Z,5.53
2023-04-20T00:15:16.307Z,5.54
2023-04-20T00:18:01.344Z,5.52
2023-04-20T00:20:46.806Z,5.55
2023-04-20T00:23:31.640Z,5.66
2023-04-20T00:26:18.802Z,5.54
2023-04-20T00:29:04.002Z,5.60
2023-04-20T00:31:49.296Z,5.63
2023-04-20T00:34:34.471Z,5.63
2023-04-20T00:37:19.668Z,5.71
2023-04-20T00:40:05.369Z,5.57
2023-04-20T00:42:50.721Z,5.51
2023-04-20T00:45:35.789Z,5.44
2023-04-20T00:48:22.073Z,5.36
2023-04-20T00:51:07.019Z,5.56
2023-04-20T00:53:51.721Z,5.47
2023-04-20T00:56:38.281Z,5.51
2023-04-20T00:59:24.269Z,5.86
2023-04-20T01:02:09.152Z,5.48
2023-04-20T01:04:54.583Z,5.39
2023-04-20T01:07:39.533Z,5.58
2023-04-20T01:10:24.543Z,5.60
2023-04-20T01:13:09.333Z,5.62
2023-04-20T01:15:59.981Z,5.52
2023-04-20T01:18:49.177Z,5.46
2023-04-20T01:21:34.334Z,5.49
2023-04-20T01:24:20.057Z,5.70
2023-04-20T01:27:04.951Z,5.47
2023-04-20T01:29:50.254Z,5.45
2023-04-20T01:32:35.393Z,5.45
2023-04-20T01:35:20.666Z,5.40
2023-04-20T01:38:05.576Z,5.60
2023-04-20T01:40:51.814Z,5.54
2023-04-20T01:43:38.220Z,5.65
2023-04-20T01:46:23.820Z,5.55
2023-04-20T01:49:08.816Z,5.55
2023-04-20T01:51:54.169Z,5.73
2023-04-20T01:54:39.296Z,5.54
2023-04-20T01:57:25.109Z,5.72
2023-04-20T02:00:11.245Z,5.52
2023-04-20T02:02:57.414Z,5.57
2023-04-20T02:05:42.557Z,5.46
2023-04-20T02:08:28.313Z,5.55
2023-04-20T02:11:13.290Z,5.50
2023-04-20T02:13:58.790Z,5.45
2023-04-20T02:16:43.542Z,5.31
2023-04-20T02:19:28.516Z,5.27
2023-04-20T02:22:13.479Z,5.38
2023-04-20T02:24:59.029Z,5.23
2023-04-20T02:27:43.869Z,5.27
2023-04-20T02:30:29.636Z,5.20
2023-04-20T02:33:14.761Z,5.25
2023-04-20T02:35:59.981Z,5.36
2023-04-20T02:38:45.104Z,5.49
2023-04-20T02:41:30.759Z,5.68
2023-04-20T02:44:15.686Z,5.78
2023-04-20T02:47:00.819Z,5.86
2023-04-20T02:49:46.058Z,6.03
2023-04-20T02:52:31.892Z,5.74
2023-04-20T02:55:16.798Z,5.64
2023-04-20T02:58:02.800Z,5.85
2023-04-20T03:00:48.302Z,5.95
2023-04-20T03:03:33.689Z,5.74
2023-04-20T03:06:19.269Z,5.67
2023-04-20T03:09:04.057Z,5.63
2023-04-20T03:11:49.928Z,5.78
2023-04-20T03:14:34.923Z,5.54
2023-04-20T03:17:20.198Z,5.65
2023-04-20T03:20:05.815Z,6.11
2023-04-20T03:22:51.029Z,5.70
2023-04-20T03:25:36.280Z,5.67
2023-04-20T03:28:21.732Z,5.85
2023-04-20T03:31:06.649Z,5.64
2023-04-20T03:33:52.052Z,5.66
2023-04-20T03:36:37.275Z,5.58
2023-04-20T03:39:22.146Z,5.73
2023-04-20T03:42:07.117Z,5.56
2023-04-20T03:44:52.869Z,5.67
2023-04-20T03:47:38.012Z,5.68
2023-04-20T03:50:22.808Z,5.73
2023-04-20T03:53:07.478Z,6.18
2023-04-20T03:55:52.568Z,5.92
2023-04-20T03:58:37.386Z,6.00
2023-04-20T04:01:22.246Z,5.84
2023-04-20T04:04:07.852Z,6.07
2023-04-20T04:06:52.552Z,5.96
2023-04-20T04:09:37.397Z,5.82
2023-04-20T04:12:22.289Z,5.87
2023-04-20T04:15:08.200Z,5.87
2023-04-20T04:17:56.091Z,5.81
2023-04-20T04:20:41.095Z,5.85
2023-04-20T04:23:26.351Z,5.80
2023-04-20T04:26:12.397Z,6.01
2023-04-20T04:28:58.030Z,5.80
2023-04-20T04:31:42.975Z,5.87
2023-04-20T04:34:29.724Z,5.87
2023-04-20T04:37:15.198Z,5.84
2023-04-20T04:40:00.576Z,5.80
2023-04-20T04:42:45.798Z,5.74
2023-04-20T04:45:31.756Z,5.72
2023-04-20T04:48:16.533Z,5.96
2023-04-20T04:51:02.450Z,5.82
2023-04-20T04:53:49.436Z,5.89
2023-04-20T04:56:34.713Z,5.79
2023-04-20T04:59:19.686Z,5.71
2023-04-20T05:02:04.889Z,5.94
2023-04-20T05:04:49.970Z,6.00
2023-04-20T05:07:35.502Z,5.84
2023-04-20T05:10:20.622Z,5.99
2023-04-20T05:13:05.723Z,6.07
2023-04-20T05:15:51.331Z,6.22
2023-04-20T05:18:36.268Z,6.15
2023-04-20T05:21:21.032Z,6.11
2023-04-20T05:24:07.365Z,6.03
2023-04-20T05:26:52.697Z,5.99
2023-04-20T05:29:38.468Z,6.06
2023-04-20T05:32:23.497Z,6.15
2023-04-20T05:35:08.934Z,6.17
2023-04-20T05:37:54.420Z,5.95
2023-04-20T05:40:39.106Z,6.03
2023-04-20T05:43:24.131Z,6.06
2023-04-20T05:46:08.954Z,6.14
2023-04-20T05:48:54.184Z,6.07
2023-04-20T05:51:39.472Z,6.01
2023-04-20T05:54:24.605Z,6.08
2023-04-20T05:57:11.993Z,6.16
2023-04-20T05:59:57.021Z,6.14
2023-04-20T06:02:43.318Z,6.15
2023-04-20T06:05:28.814Z,6.11
2023-04-20T06:08:14.080Z,6.10
2023-04-20T06:10:59.033Z,6.30
2023-04-20T06:13:44.434Z,6.37
2023-04-20T06:16:29.577Z,6.33
2023-04-20T06:19:14.314Z,6.22
2023-04-20T06:22:01.004Z,6.21
2023-04-20T06:24:46.580Z,6.25
2023-04-20T06:27:32.604Z,6.33
2023-04-20T06:30:17.655Z,6.37
2023-04-20T06:33:03.244Z,6.46
2023-04-20T06:35:48.007Z,6.62
2023-04-20T06:38:32.825Z,6.67
2023-04-20T06:41:17.946Z,6.68
2023-04-20T06:44:02.852Z,6.81
2023-04-20T06:46:47.630Z,6.84
2023-04-20T06:49:32.487Z,6.75
2023-04-20T06:52:17.384Z,6.95
2023-04-20T06:55:02.516Z,6.86
2023-04-20T06:57:47.666Z,6.80
2023-04-20T07:00:32.570Z,6.82
2023-04-20T07:03:18.895Z,6.78
2023-04-20T07:06:04.713Z,6.79
2023-04-20T07:08:49.898Z,6.75
2023-04-20T07:11:35.463Z,6.76
2023-04-20T07:14:20.880Z,6.85
2023-04-20T07:17:06.131Z,6.96
2023-04-20T07:19:52.365Z,7.09
2023-04-20T07:22:38.867Z,7.15
2023-04-20T07:25:24.831Z,7.25
2023-04-20T07:28:09.732Z,7.23
2023-04-20T07:30:54.683Z,7.26
2023-04-20T07:33:40.008Z,7.38
2023-04-20T07:36:25.049Z,7.39
2023-04-20T07:39:10.159Z,7.47
2023-04-20T07:41:55.097Z,7.39
2023-04-20T07:44:41.410Z,7.36
2023-04-20T07:47:26.661Z,7.55
2023-04-20T07:50:11.775Z,7.56
2023-04-20T07:52:56.829Z,7.59
2023-04-20T07:55:41.794Z,7.64
2023-04-20T07:58:26.565Z,7.60
2023-04-20T08:01:11.457Z,7.62
2023-04-20T08:03:56.852Z,7.59
2023-04-20T08:06:42.312Z,7.77
2023-04-20T08:09:30.692Z,7.79
2023-04-20T08:12:15.700Z,7.63
2023-04-20T08:15:01.915Z,7.60
2023-04-20T08:17:47.017Z,7.42
2023-04-20T08:23:27.632Z,7.40
2023-04-20T08:26:16.590Z,7.46
2023-04-20T08:29:02.716Z,7.62
2023-04-20T08:31:50.040Z,7.55
2023-04-20T08:34:36.323Z,7.73
2023-04-20T08:37:21.437Z,7.85
2023-04-20T08:40:06.968Z,7.87
2023-04-20T08:42:52.164Z,7.97
2023-04-20T08:45:37.542Z,8.14
2023-04-20T08:48:23.321Z,8.24
2023-04-20T08:51:08.765Z,8.32
2023-04-20T08:53:55.971Z,8.77
2023-04-20T08:56:43.785Z,9.35
2023-04-20T08:59:30.321Z,9.73
2023-04-20T09:02:15.703Z,10.05
2023-04-20T09:05:03.013Z,9.95
2023-04-20T09:07:53.260Z,10.21
2023-04-20T09:10:41.174Z,10.33
2023-04-20T09:13:25.836Z,10.24
2023-04-20T09:16:12.850Z,10.03
2023-04-20T09:19:00.307Z,10.09
2023-04-20T09:21:51.440Z,9.96
2023-04-20T09:24:38.818Z,10.40
2023-04-20T09:27:26.399Z,10.97
2023-04-20T09:30:11.868Z,11.10
2023-04-20T09:33:08.445Z,10.82
2023-04-20T09:35:53.816Z,10.46
2023-04-20T09:38:38.728Z,10.74
2023-04-20T09:41:23.950Z,10.49
2023-04-20T09:44:10.766Z,10.34
2023-04-20T09:46:56.523Z,10.16
2023-04-20T09:49:43.632Z,9.84
2023-04-20T09:52:29.275Z,9.99
2023-04-20T09:55:14.224Z,10.13
2023-04-20T09:58:02.925Z,10.12
2023-04-20T10:00:47.900Z,10.00
2023-04-20T10:03:34.770Z,10.06
2023-04-20T10:06:24.734Z,10.24
2023-04-20T10:09:22.960Z,10.36
2023-04-20T10:12:09.609Z,10.21
2023-04-20T10:14:58.128Z,10.14
2023-04-20T10:17:43.347Z,10.22
2023-04-20T10:20:29.048Z,11.00
2023-04-20T10:23:18.879Z,11.22
2023-04-20T10:26:04.027Z,10.94
2023-04-20T10:28:49.555Z,10.78
2023-04-20T10:31:43.327Z,10.56
2023-04-20T10:34:32.715Z,10.42
2023-04-20T10:37:17.514Z,11.00
2023-04-20T10:40:07.919Z,11.18
2023-04-20T10:42:53.164Z,11.13
2023-04-20T10:45:38.572Z,11.06
2023-04-20T10:48:23.642Z,11.28
2023-04-20T10:51:10.021Z,11.88
2023-04-20T10:54:06.700Z,12.30
2023-04-20T10:56:52.931Z,11.97
2023-04-20T10:59:41.393Z,11.61
2023-04-20T11:02:27.969Z,11.73
2023-04-20T11:05:13.195Z,12.21
2023-04-20T11:08:01.006Z,12.18
2023-04-20T11:10:46.256Z,12.22
2023-04-20T11:13:32.808Z,12.14
2023-04-20T11:16:19.206Z,12.01
2023-04-20T11:19:04.852Z,12.22
2023-04-20T11:21:49.622Z,11.85
2023-04-20T11:24:35.879Z,12.08
2023-04-20T11:27:25.023Z,12.09
2023-04-20T11:30:10.345Z,12.12
2023-04-20T11:32:55.625Z,12.36
2023-04-20T11:35:44.626Z,12.75
2023-04-20T11:38:35.191Z,12.82
2023-04-20T11:41:20.326Z,13.25
2023-04-20T11:44:06.977Z,13.56
2023-04-20T11:46:55.138Z,13.37
2023-04-20T11:49:40.155Z,12.77
2023-04-20T11:52:25.728Z,12.50
2023-04-20T11:55:11.346Z,12.17
2023-04-20T11:57:56.223Z,12.13
2023-04-20T12:00:41.122Z,12.02
2023-04-20T12:03:28.049Z,11.91
2023-04-20T12:06:14.205Z,11.79
2023-04-20T12:08:59.604Z,11.76
2023-04-20T12:11:44.693Z,11.60
2023-04-20T12:14:29.783Z,11.51
2023-04-20T12:17:15.026Z,11.66
2023-04-20T12:20:00.493Z,11.47
2023-04-20T12:22:45.868Z,11.34
2023-04-20T12:25:30.817Z,11.36
2023-04-20T12:28:15.848Z,11.27
2023-04-20T12:31:00.997Z,11.18
2023-04-20T12:33:48.534Z,10.98
2023-04-20T12:36:35.111Z,10.76
2023-04-20T12:39:20.721Z,10.86
2023-04-20T12:42:05.921Z,10.85
2023-04-20T12:44:54.124Z,10.54
2023-04-20T12:47:40.983Z,10.65
2023-04-20T12:50:26.090Z,10.86
2023-04-20T12:53:11.484Z,10.82
2023-04-20T12:56:01.109Z,10.62
2023-04-20T12:58:47.076Z,10.44
2023-04-20T13:01:32.259Z,10.43
2023-04-20T13:04:17.511Z,10.41
2023-04-20T13:07:03.119Z,10.25
2023-04-20T13:09:48.303Z,10.08
2023-04-20T13:12:33.189Z,9.90
2023-04-20T13:15:31.777Z,9.77
2023-04-20T13:18:24.503Z,9.61
2023-04-20T13:21:09.522Z,9.58
2023-04-20T13:23:55.506Z,9.43
2023-04-20T13:26:43.053Z,9.32
2023-04-20T13:29:28.519Z,9.19
2023-04-20T13:32:13.767Z,9.19
2023-04-20T13:35:00.588Z,9.26
2023-04-20T13:37:46.082Z,9.19
2023-04-20T13:40:31.215Z,9.14
2023-04-20T13:43:16.200Z,9.12
2023-04-20T13:46:02.048Z,9.11
2023-04-20T13:48:47.157Z,9.17
2023-04-20T13:51:32.490Z,9.20
2023-04-20T13:54:18.427Z,9.18
2023-04-20T13:57:03.781Z,9.22
2023-04-20T13:59:48.958Z,9.29
2023-04-20T14:02:33.982Z,9.33
2023-04-20T14:05:19.408Z,9.30
2023-04-20T14:08:06.820Z,9.30
2023-04-20T14:10:52.013Z,9.27
2023-04-20T14:13:37.739Z,9.28
2023-04-20T14:16:25.220Z,9.35
2023-04-20T14:19:10.188Z,9.42
2023-04-20T14:21:54.968Z,9.40
2023-04-20T14:24:40.676Z,9.43
2023-04-20T14:27:25.865Z,9.31
2023-04-20T14:30:11.430Z,9.20
2023-04-20T14:32:58.171Z,9.04
2023-04-20T14:35:43.565Z,9.13
2023-04-20T14:38:28.465Z,9.05
2023-04-20T14:41:13.401Z,9.08
2023-04-20T14:43:58.378Z,9.01
2023-04-20T14:46:43.889Z,8.98
2023-04-20T14:49:31.364Z,9.00
2023-04-20T14:52:16.424Z,8.99
2023-04-20T14:55:01.280Z,8.95
2023-04-20T14:57:46.202Z,8.97
2023-04-20T15:00:32.557Z,9.11
2023-04-20T15:03:18.296Z,9.11
2023-04-20T15:06:03.665Z,8.91
2023-04-20T15:08:49.080Z,9.08
2023-04-20T15:11:34.038Z,9.07
2023-04-20T15:14:20.313Z,9.12
2023-04-20T15:17:05.771Z,9.17
2023-04-20T15:19:50.547Z,9.16
2023-04-20T15:22:36.910Z,9.28
2023-04-20T15:25:22.756Z,9.26
2023-04-20T15:28:07.895Z,9.18
2023-04-20T15:30:53.077Z,9.20
2023-04-20T15:33:38.218Z,9.17
2023-04-20T15:36:23.098Z,9.25
2023-04-20T15:39:08.283Z,9.36
2023-04-20T15:41:53.571Z,9.42
2023-04-20T15:44:40.680Z,9.51
2023-04-20T15:47:25.533Z,9.50
2023-04-20T15:50:11.222Z,9.67
2023-04-20T15:52:56.436Z,9.63
2023-04-20T15:55:42.350Z,9.74
2023-04-20T15:58:28.789Z,9.73
2023-04-20T16:01:13.995Z,9.77
2023-04-20T16:03:59.304Z,9.83
2023-04-20T16:06:44.551Z,9.91
2023-04-20T16:09:29.350Z,9.88
2023-04-20T16:12:14.971Z,9.80
2023-04-20T16:15:01.159Z,9.85
2023-04-20T16:17:46.721Z,9.78
2023-04-20T16:20:31.765Z,9.78
2023-04-20T16:23:19.219Z,9.79
2023-04-20T16:26:04.461Z,9.73
2023-04-20T16:28:49.823Z,9.74
2023-04-20T16:31:36.533Z,9.78
2023-04-20T16:34:21.522Z,9.73
2023-04-20T16:37:06.642Z,9.81
2023-04-20T16:39:51.838Z,9.86
2023-04-20T16:42:36.966Z,9.89
2023-04-20T16:45:22.055Z,9.88
2023-04-20T16:48:08.155Z,9.84
2023-04-20T16:50:53.177Z,10.03
2023-04-20T16:53:38.130Z,10.60
2023-04-20T16:56:22.955Z,11.04
2023-04-20T16:59:09.146Z,11.34
2023-04-20T17:01:54.372Z,11.50
2023-04-20T17:04:39.573Z,11.42
2023-04-20T17:07:24.814Z,11.03
2023-04-20T17:10:10.040Z,10.75
2023-04-20T17:12:57.696Z,10.38
2023-04-20T17:15:45.140Z,10.09
2023-04-20T17:18:30.532Z,10.07
2023-04-20T17:21:17.877Z,10.00
2023-04-20T17:24:03.393Z,9.88
2023-04-20T17:26:55.284Z,9.85
2023-04-20T17:29:43.146Z,9.77
2023-04-20T17:32:28.562Z,9.69
2023-04-20T17:35:14.017Z,9.79
2023-04-20T17:37:59.720Z,9.64
2023-04-20T17:40:45.321Z,9.72
2023-04-20T17:43:33.579Z,9.59
2023-04-20T17:46:18.881Z,9.61
2023-04-20T17:49:05.997Z,9.46
2023-04-20T17:51:51.424Z,9.45
2023-04-20T17:54:36.767Z,9.49
2023-04-20T17:57:24.778Z,9.51
2023-04-20T18:00:12.596Z,9.40
2023-04-20T18:02:58.954Z,9.39
2023-04-20T18:05:45.639Z,9.33
2023-04-20T18:08:30.755Z,9.31
2023-04-20T18:11:16.010Z,9.26
2023-04-20T18:14:01.269Z,9.29
2023-04-20T18:16:46.411Z,9.34
2023-04-20T18:19:32.634Z,9.34
2023-04-20T18:22:18.094Z,9.38
2023-04-20T18:25:04.673Z,9.35
2023-04-20T18:27:49.471Z,9.34
2023-04-20T18:30:34.828Z,9.33
2023-04-20T18:33:20.396Z,9.37
2023-04-20T18:36:09.642Z,9.38
2023-04-20T18:38:55.197Z,9.32
2023-04-20T18:41:40.658Z,9.27
2023-04-20T18:44:28.103Z,9.20
2023-04-20T18:47:17.571Z,9.14
2023-04-20T18:50:02.748Z,9.19
2023-04-20T18:52:50.952Z,9.18
2023-04-20T18:55:37.600Z,9.26
2023-04-20T18:58:22.986Z,9.15
2023-04-20T19:01:07.857Z,9.10
2023-04-20T19:03:53.290Z,9.20
2023-04-20T19:06:39.803Z,9.09
2023-04-20T19:09:25.850Z,9.16
2023-04-20T19:12:13.638Z,9.13
2023-04-20T19:15:01.490Z,9.21
2023-04-20T19:17:47.511Z,9.18
2023-04-20T19:20:35.808Z,9.23
2023-04-20T19:23:21.979Z,9.21
2023-04-20T19:26:07.294Z,9.10
2023-04-20T19:28:54.347Z,9.11
2023-04-20T19:31:40.637Z,9.20
2023-04-20T19:34:25.424Z,8.93
2023-04-20T19:37:10.589Z,9.04
2023-04-20T19:39:56.090Z,9.16
2023-04-20T19:42:42.486Z,9.08
2023-04-20T19:45:27.597Z,9.04
2023-04-20T19:48:12.635Z,8.90
2023-04-20T19:51:01.956Z,8.87
2023-04-20T19:53:46.949Z,8.83
2023-04-20T19:56:35.154Z,8.65
2023-04-20T19:59:20.687Z,8.80
2023-04-20T20:02:06.191Z,8.60
2023-04-20T20:04:55.504Z,8.74
2023-04-20T20:07:42.627Z,8.64
2023-04-20T20:10:27.361Z,8.74
2023-04-20T20:13:15.658Z,8.68
2023-04-20T20:16:00.642Z,8.82
2023-04-20T20:18:48.041Z,8.89
2023-04-20T20:21:35.665Z,8.78
2023-04-20T20:26:47.224Z,8.84
2023-04-20T20:29:32.533Z,8.91
2023-04-20T20:32:17.465Z,8.84
2023-04-20T20:35:04.518Z,8.61
2023-04-20T20:37:50.048Z,8.47
2023-04-20T20:40:35.569Z,8.32
2023-04-20T20:43:24.310Z,8.12
2023-04-20T20:46:11.882Z,8.21
2023-04-20T20:49:00.784Z,8.09
2023-04-20T20:51:46.584Z,7.95
2023-04-20T20:54:31.871Z,7.80
2023-04-20T20:57:17.850Z,7.86
2023-04-20T21:00:07.712Z,7.90
2023-04-20T21:02:52.866Z,7.98
2023-04-20T21:05:37.745Z,7.93
2023-04-20T21:08:24.890Z,7.93
2023-04-20T21:11:10.170Z,7.75
2023-04-20T21:14:02.090Z,7.75
2023-04-20T21:16:47.561Z,7.79
2023-04-20T21:19:32.792Z,7.77
2023-04-20T21:22:18.283Z,7.88
2023-04-20T21:25:03.798Z,8.01
2023-04-20T21:27:49.101Z,8.17
2023-04-20T21:30:34.309Z,8.27
2023-04-20T21:33:21.771Z,8.35
2023-04-20T21:36:08.343Z,8.59
2023-04-20T21:38:53.414Z,8.70
2023-04-20T21:41:38.622Z,8.76
2023-04-20T21:44:24.643Z,8.82
2023-04-20T21:47:09.623Z,8.90
2023-04-20T21:49:54.923Z,8.92
2023-04-20T21:52:39.962Z,8.97
2023-04-20T21:55:25.255Z,9.11
2023-04-20T21:58:11.173Z,9.09
2023-04-20T22:00:56.520Z,9.11
2023-04-20T22:03:41.740Z,9.11
2023-04-20T22:06:26.973Z,9.14
2023-04-20T22:09:11.756Z,9.20
2023-04-20T22:11:58.581Z,9.23
2023-04-20T22:14:43.469Z,9.19
2023-04-20T22:17:30.094Z,9.25
2023-04-20T22:20:16.577Z,9.23
2023-04-20T22:23:02.025Z,9.12
2023-04-20T22:25:47.761Z,9.15
2023-04-20T22:28:33.430Z,9.12
2023-04-20T22:31:18.696Z,9.11
2023-04-20T22:34:03.754Z,9.14
2023-04-20T22:36:48.998Z,9.15
2023-04-20T22:39:34.061Z,9.14
2023-04-20T22:42:19.320Z,9.16
2023-04-20T22:45:04.762Z,9.09
2023-04-20T22:47:50.101Z,9.08
2023-04-20T22:50:35.123Z,9.06
2023-04-20T22:53:20.852Z,9.09
2023-04-20T22:56:07.333Z,9.02
2023-04-20T22:58:52.903Z,9.04
2023-04-20T23:01:38.070Z,9.06
2023-04-20T23:04:23.257Z,8.96
2023-04-20T23:07:08.268Z,8.91
2023-04-20T23:09:53.571Z,8.91
2023-04-20T23:12:38.368Z,8.95
2023-04-20T23:15:23.322Z,8.94
2023-04-20T23:18:08.416Z,8.88
2023-04-20T23:20:53.534Z,8.89
2023-04-20T23:23:38.315Z,8.84
2023-04-20T23:26:24.223Z,8.79
2023-04-20T23:29:09.674Z,8.85
2023-04-20T23:31:55.072Z,8.76
2023-04-20T23:34:40.169Z,8.81
2023-04-20T23:37:25.217Z,8.78
2023-04-20T23:40:10.449Z,8.79
2023-04-20T23:42:55.378Z,8.85
2023-04-20T23:45:40.366Z,8.77
2023-04-20T23:48:25.679Z,8.68
2023-04-20T23:51:10.878Z,8.72
2023-04-20T23:53:56.062Z,8.60
2023-04-20T23:56:41.071Z,8.72
2023-04-20T23:59:26.704Z,8.69
